Time;durP1;ratioP1;P1;durP2;ratioP2;P2;SDS_P1;SDS_P2;PMS_P1;PMS_P2;Temp;Humidity;BMP_temperature;BMP_pressure;BME280_temperature;BME280_humidity;BME280_pressure;Samples;Min_cycle;Max_cycle;Signal;HPM_P1;HPM_P2
2022/04/30 00:03:18;;;;;;;28.07;14.17;;;;;;;9.09;100.00;101485.03;10542912;28;20203;-62
2022/04/30 00:08:27;;;;;;;26.90;15.60;;;;;;;9.07;100.00;101485.00;10542930;28;20256;-64
2022/04/30 00:13:30;;;;;;;27.90;16.83;;;;;;;9.00;100.00;101480.59;10542922;28;20256;-66
2022/04/30 00:18:36;;;;;;;27.90;16.17;;;;;;;8.89;100.00;101478.69;10543280;28;20242;-65
2022/04/30 00:23:39;;;;;;;33.63;19.00;;;;;;;8.92;100.00;101478.75;10542653;28;20222;-65
2022/04/30 00:28:42;;;;;;;32.63;18.33;;;;;;;8.81;100.00;101478.59;10542375;28;20622;-64
2022/04/30 00:33:48;;;;;;;31.03;18.33;;;;;;;8.59;100.00;101480.81;10542152;28;20519;-68
2022/04/30 00:38:51;;;;;;;29.80;18.00;;;;;;;8.51;100.00;101477.25;10542886;28;20187;-66
2022/04/30 00:43:56;;;;;;;32.40;19.30;;;;;;;8.52;100.00;101479.84;10542043;28;20225;-64
2022/04/30 00:49:01;;;;;;;30.03;17.43;;;;;;;8.61;100.00;101481.72;10542014;28;20188;-66
2022/04/30 00:54:06;;;;;;;32.97;19.90;;;;;;;8.58;100.00;101479.06;10543090;28;20605;-66
2022/04/30 00:59:17;;;;;;;32.40;19.50;;;;;;;8.59;100.00;101479.13;10541738;28;20256;-66
2022/04/30 01:04:21;;;;;;;31.17;17.73;;;;;;;8.50;100.00;101481.53;10542054;28;20231;-68
2022/04/30 01:09:28;;;;;;;30.70;18.00;;;;;;;8.47;100.00;101481.50;10541640;28;20202;-67
2022/04/30 01:14:32;;;;;;;29.60;18.40;;;;;;;8.35;100.00;101481.31;10541485;28;20200;-67
2022/04/30 01:19:39;;;;;;;30.63;18.50;;;;;;;8.30;100.00;101469.97;10541590;28;20223;-66
2022/04/30 01:24:44;;;;;;;29.60;17.70;;;;;;;8.14;100.00;101475.72;10543313;28;20709;-69
2022/04/30 01:29:48;;;;;;;31.07;18.53;;;;;;;8.07;100.00;101477.34;10548850;28;20629;-69
2022/04/30 01:40:14;;;;;;;26.00;17.60;;;;;;;8.07;100.00;101477.34;10548234;28;20198;-65
2022/04/30 01:45:18;;;;;;;33.97;19.43;;;;;;;8.08;100.00;101475.59;10548787;28;20211;-68
2022/04/30 01:50:21;;;;;;;28.97;19.73;;;;;;;8.05;100.00;101478.13;10548131;28;20337;-69
2022/04/30 01:55:26;;;;;;;33.00;20.13;;;;;;;8.00;100.00;101478.06;10547959;28;20188;-70
2022/04/30 02:00:30;;;;;;;40.57;21.83;;;;;;;7.94;100.00;101479.66;10548946;28;20521;-70
2022/04/30 02:05:35;;;;;;;34.37;20.53;;;;;;;7.91;100.00;101482.19;10547340;28;20195;-68
2022/04/30 02:10:41;;;;;;;39.30;23.43;;;;;;;7.86;100.00;101481.22;10547184;28;20634;-68
2022/04/30 02:15:46;;;;;;;41.97;23.53;;;;;;;7.93;100.00;101481.38;10547080;28;20207;-68
2022/04/30 02:20:51;;;;;;;44.50;26.23;;;;;;;7.82;100.00;101476.81;10546933;28;20238;-65
2022/04/30 02:25:56;;;;;;;42.47;25.47;;;;;;;7.76;100.00;101471.56;10546647;28;20520;-68
2022/04/30 02:30:59;;;;;;;44.57;26.77;;;;;;;7.73;100.00;101467.19;10548330;28;20199;-69
2022/04/30 02:36:02;;;;;;;42.50;25.77;;;;;;;7.66;100.00;101460.16;10546339;28;20648;-70
2022/04/30 02:41:07;;;;;;;40.90;26.13;;;;;;;7.60;100.00;101460.06;10546162;28;20241;-66
2022/04/30 02:46:14;;;;;;;45.03;28.10;;;;;;;7.52;100.00;101464.22;10546038;28;20633;-72
2022/04/30 02:51:17;;;;;;;49.50;29.00;;;;;;;7.53;100.00;101468.53;10545952;28;20252;-69
2022/04/30 02:56:22;;;;;;;52.97;28.10;;;;;;;7.51;100.00;101459.00;10545410;28;20198;-69
2022/04/30 03:01:25;;;;;;;43.63;28.93;;;;;;;7.47;100.00;101452.91;10546229;28;20219;-67
2022/04/30 03:06:28;;;;;;;51.27;28.67;;;;;;;7.32;100.00;101452.59;10545663;28;20195;-68
2022/04/30 03:11:33;;;;;;;50.27;28.57;;;;;;;7.29;100.00;101454.25;10544654;28;20192;-70
2022/04/30 03:21:57;;;;;;;46.00;28.83;;;;;;;7.28;100.00;101455.09;10544344;28;20264;-70
2022/04/30 03:27:03;;;;;;;51.43;30.23;;;;;;;7.22;100.00;101462.69;10544318;28;20207;-66
2022/04/30 03:32:08;;;;;;;48.90;28.70;;;;;;;7.18;100.00;101461.75;10544104;28;20639;-68
2022/04/30 03:37:11;;;;;;;48.43;30.10;;;;;;;7.21;100.00;101463.56;10545133;28;20225;-68
2022/04/30 03:42:16;;;;;;;53.73;30.43;;;;;;;7.14;100.00;101456.50;10543557;28;20575;-67
2022/04/30 03:47:20;;;;;;;49.10;29.83;;;;;;;7.06;100.00;101464.09;10543199;28;20205;-69
2022/04/30 03:52:24;;;;;;;50.30;29.60;;;;;;;7.11;100.00;101465.06;10543330;28;20210;-67
2022/04/30 03:57:29;;;;;;;56.43;30.30;;;;;;;7.17;100.00;101470.34;10543361;28;20513;-70
2022/04/30 04:02:33;;;;;;;49.87;32.47;;;;;;;7.31;100.00;101465.47;10542990;28;20215;-71
2022/04/30 04:07:36;;;;;;;53.70;31.57;;;;;;;7.43;100.00;101458.88;10543945;28;20191;-68
2022/04/30 04:12:41;;;;;;;52.30;31.73;;;;;;;7.53;100.00;101467.66;10542779;28;20552;-69
2022/04/30 04:17:45;;;;;;;53.23;33.67;;;;;;;7.57;100.00;101465.19;10543217;28;20219;-69
2022/04/30 04:22:48;;;;;;;58.57;33.23;;;;;;;7.65;100.00;101463.59;10542374;28;20215;-67
2022/04/30 04:27:55;;;;;;;56.07;33.90;;;;;;;7.70;100.00;101459.41;10542449;28;20276;-68
2022/04/30 04:32:59;;;;;;;59.03;32.23;;;;;;;7.72;100.00;101462.00;10542450;28;20243;-67
2022/04/30 04:38:02;;;;;;;62.17;34.70;;;;;;;7.74;100.00;101463.78;10542928;28;20191;-65
2022/04/30 04:43:07;;;;;;;56.30;34.03;;;;;;;7.77;100.00;101468.13;10542933;28;20247;-66
2022/04/30 04:48:15;;;;;;;55.27;34.80;;;;;;;7.89;100.00;101469.22;10542022;28;20229;-67
2022/04/30 04:53:18;;;;;;;54.87;35.23;;;;;;;7.99;100.00;101471.13;10541604;28;20233;-66
2022/04/30 04:58:23;;;;;;;59.07;35.10;;;;;;;8.03;100.00;101466.88;10542074;28;20214;-66
2022/04/30 05:03:26;;;;;;;55.77;34.53;;;;;;;8.13;100.00;101468.78;10549212;28;20540;-66
2022/04/30 05:08:30;;;;;;;55.80;33.93;;;;;;;8.25;100.00;101463.84;10549597;28;20651;-67
2022/04/30 05:13:34;;;;;;;49.77;31.90;;;;;;;8.34;100.00;101465.72;10550730;28;20222;-69
2022/04/30 05:18:37;;;;;;;49.60;32.20;;;;;;;8.46;100.00;101466.81;10549410;28;20746;-66
2022/04/30 05:23:41;;;;;;;49.50;30.67;;;;;;;8.56;100.00;101465.25;10549382;28;20233;-68
2022/04/30 05:28:45;;;;;;;48.17;30.47;;;;;;;8.65;100.00;101463.66;10548717;28;20245;-65
2022/04/30 05:33:49;;;;;;;46.30;29.80;;;;;;;8.76;100.00;101459.53;10548934;28;20223;-65
2022/04/30 05:38:52;;;;;;;44.80;30.33;;;;;;;8.83;100.00;101457.91;10549182;28;20241;-70
2022/04/30 05:43:56;;;;;;;44.50;29.77;;;;;;;8.93;100.00;101462.34;10548401;28;20223;-67
2022/04/30 05:49:00;;;;;;;45.77;29.07;;;;;;;9.02;100.00;101465.97;10548173;28;20233;-65
2022/04/30 05:54:03;;;;;;;49.13;28.93;;;;;;;9.14;100.00;101463.53;10547622;28;20306;-67
2022/04/30 05:59:08;;;;;;;44.63;27.97;;;;;;;9.25;100.00;101469.72;10547569;28;20291;-66
2022/04/30 06:04:11;;;;;;;43.77;28.97;;;;;;;9.34;100.00;101474.13;10547351;28;20231;-67
2022/04/30 06:09:15;;;;;;;44.10;28.57;;;;;;;9.47;100.00;101473.44;10547139;28;20680;-66
2022/04/30 06:14:20;;;;;;;40.63;26.67;;;;;;;9.64;100.00;101471.03;10546629;28;20226;-69
2022/04/30 06:19:23;;;;;;;37.97;26.47;;;;;;;9.75;100.00;101467.72;10547031;28;20227;-69
2022/04/30 06:24:26;;;;;;;45.17;25.17;;;;;;;9.92;100.00;101463.56;10544439;28;20223;-69
2022/04/30 06:29:31;;;;;;;36.23;22.73;;;;;;;10.01;100.00;101460.22;10543094;28;20548;-68
2022/04/30 06:34:34;;;;;;;35.27;22.10;;;;;;;10.17;99.72;101457.81;10543211;28;20230;-64
2022/04/30 06:39:37;;;;;;;33.77;21.50;;;;;;;10.37;98.49;101464.03;10543203;28;20241;-64
2022/04/30 06:44:42;;;;;;;30.23;18.93;;;;;;;10.52;96.79;101463.31;10543008;28;20241;-65
2022/04/30 06:49:46;;;;;;;31.30;19.63;;;;;;;10.70;94.86;101466.03;10542563;28;20590;-66
2022/04/30 07:05:31;;;;;;;25.30;16.53;;;;;;;11.26;88.36;101469.84;10165511;28;10000000;-66
2022/04/30 07:10:35;;;;;;;24.77;15.80;;;;;;;11.36;87.23;101462.94;10499614;28;20246;-66
2022/04/30 07:15:39;;;;;;;22.47;13.97;;;;;;;11.48;86.35;101453.47;10499682;28;20216;-65
2022/04/30 07:20:43;;;;;;;19.50;12.63;;;;;;;11.64;83.88;101451.81;10499322;28;20311;-69
2022/04/30 07:25:47;;;;;;;21.27;10.80;;;;;;;11.77;81.95;101450.13;10499685;28;20683;-64
2022/04/30 07:30:51;;;;;;;19.37;9.93;;;;;;;11.93;80.11;101450.16;10498843;28;20220;-64
2022/04/30 07:35:55;;;;;;;13.23;8.43;;;;;;;12.09;77.83;101445.84;10498526;28;20803;-65
2022/04/30 07:40:59;;;;;;;14.80;7.10;;;;;;;12.24;75.53;101443.25;10501914;28;20226;-67
2022/04/30 07:46:03;;;;;;;10.90;6.17;;;;;;;12.44;70.47;101433.72;10501412;28;20284;-67
2022/04/30 07:51:19;;;;;;;10.57;5.10;;;;;;;12.62;68.04;101433.69;10501490;28;20220;-67
2022/04/30 07:56:22;;;;;;;8.47;3.90;;;;;;;12.72;64.24;101433.69;10501212;28;20239;-68
2022/04/30 08:01:27;;;;;;;7.43;3.30;;;;;;;12.76;62.51;101426.72;10501406;28;20226;-67
2022/04/30 08:06:30;;;;;;;5.30;2.00;;;;;;;13.03;59.41;101424.09;10500964;28;20655;-67
2022/04/30 08:11:33;;;;;;;18.73;9.57;;;;;;;13.17;57.93;101418.81;10501895;28;20212;-65
2022/04/30 08:16:38;;;;;;;7.90;3.77;;;;;;;13.23;59.38;101416.19;10500738;28;20669;-68
2022/04/30 08:21:42;;;;;;;7.07;3.40;;;;;;;13.34;58.26;101412.66;10501156;28;20220;-66
2022/04/30 08:27:06;;;;;;;5.30;1.93;;;;;;;13.48;55.55;101412.59;10500537;28;20611;-69
2022/04/30 08:32:11;;;;;;;5.27;2.10;;;;;;;13.60;53.77;101417.75;10500436;28;20319;-66
2022/04/30 08:37:14;;;;;;;3.93;1.43;;;;;;;13.65;50.65;101426.44;10507838;28;20668;-68
2022/04/30 08:42:19;;;;;;;6.50;1.57;;;;;;;13.73;50.83;101414.22;10508979;28;20211;-65
2022/04/30 08:47:24;;;;;;;4.93;1.93;;;;;;;13.78;49.85;101410.69;10508757;28;20230;-67
2022/04/30 08:52:27;;;;;;;3.87;1.40;;;;;;;14.01;49.35;101410.56;10508904;28;20220;-66
2022/04/30 08:57:30;;;;;;;5.30;1.60;;;;;;;14.24;48.46;101400.78;10509250;28;20216;-67
2022/04/30 09:02:36;;;;;;;6.97;1.47;;;;;;;14.29;47.03;101391.19;10508481;28;20346;-67
2022/04/30 09:07:39;;;;;;;4.50;1.60;;;;;;;14.46;47.56;101394.50;10508076;28;20211;-68
2022/04/30 09:12:43;;;;;;;5.47;1.40;;;;;;;14.64;45.77;101394.34;10507938;28;20211;-65
2022/04/30 09:18:00;;;;;;;6.07;1.83;;;;;;;14.87;44.25;101381.91;10507121;28;20265;-66
2022/04/30 09:23:03;;;;;;;3.40;1.17;;;;;;;15.10;42.96;101379.00;10507033;28;20246;-67
2022/04/30 09:28:06;;;;;;;3.63;1.30;;;;;;;15.52;45.33;101373.25;10506935;28;20244;-66
2022/04/30 09:33:11;;;;;;;7.00;1.63;;;;;;;15.99;42.78;101376.03;10506931;28;20224;-67
2022/04/30 09:38:15;;;;;;;3.90;1.37;;;;;;;17.11;41.52;101369.63;10507902;28;20216;-66
2022/04/30 09:43:18;;;;;;;6.73;1.80;;;;;;;18.25;41.28;101367.88;10508249;28;20646;-65
2022/04/30 09:54:00;;;;;;;5.07;1.80;;;;;;;19.65;38.07;101347.25;10505736;28;20216;-64
2022/04/30 09:59:10;;;;;;;7.83;1.70;;;;;;;20.35;34.71;101347.56;10505894;28;20220;-65
2022/04/30 10:04:16;;;;;;;4.30;1.40;;;;;;;21.19;35.67;101340.13;10505464;28;20224;-67
2022/04/30 10:09:23;;;;;;;5.30;1.30;;;;;;;22.31;36.14;101339.09;10505431;28;20638;-66
2022/04/30 10:14:34;;;;;;;5.20;1.87;;;;;;;22.62;34.01;101316.53;10505250;28;20203;-66
2022/04/30 10:19:39;;;;;;;6.13;1.90;;;;;;;22.78;32.70;101317.59;10505411;28;20603;-67
2022/04/30 10:24:48;;;;;;;4.73;1.80;;;;;;;23.14;32.06;101314.19;10504852;28;20269;-65
2022/04/30 10:29:55;;;;;;;4.33;1.53;;;;;;;;;;10504549;28;20649;-68
2022/04/30 10:35:00;;;;;;;13.53;7.70;;;;;;;23.81;29.02;101307.41;10504268;28;20220;-67
2022/04/30 10:40:06;;;;;;;5.50;1.40;;;;;;;23.93;30.29;101309.47;10503908;28;20192;-64
2022/04/30 10:45:15;;;;;;;6.60;2.07;;;;;;;24.23;29.03;101302.63;10503944;28;20236;-65
2022/04/30 10:50:20;;;;;;;6.73;1.57;;;;;;;24.48;27.72;101302.22;10503892;28;20234;-69
2022/04/30 10:55:26;;;;;;;8.63;1.90;;;;;;;24.98;26.86;101295.97;10503519;28;20200;-65
2022/04/30 11:00:30;;;;;;;7.40;2.40;;;;;;;25.56;27.98;101298.06;10502230;28;20299;-67
2022/04/30 11:05:34;;;;;;;4.33;1.47;;;;;;;25.81;27.88;101287.72;10503316;28;20303;-66
2022/04/30 11:10:37;;;;;;;4.27;1.53;;;;;;;26.00;26.33;101281.25;10502697;28;20307;-72
2022/04/30 11:15:40;;;;;;;;;;;;;;;26.09;25.50;101272.72;10502661;28;20206;-63
2022/04/30 11:20:46;;;;;;;;;;;;;;;26.10;26.43;101278.91;10502925;28;19997;-68
2022/04/30 11:25:50;;;;;;;;;;;;;;;26.40;25.83;101262.91;10502681;28;20303;-64
2022/04/30 11:30:58;;;;;;;;;;;;;;;26.87;26.76;101268.84;10502346;28;20338;-64
2022/04/30 11:36:03;;;;;;;;;;;;;;;27.09;28.12;101247.88;10502339;28;19982;-70
2022/04/30 11:41:07;;;;;;;;;;;;;;;27.79;28.01;101244.09;10501976;28;19970;-69
2022/04/30 11:46:11;;;;;;;;;;;;;;;27.47;25.45;101240.94;10502997;28;19924;-69
2022/04/30 11:51:16;;;;;;;;;;;;;;;26.97;24.26;101238.00;10501670;28;19920;-67
2022/04/30 11:56:19;;;;;;;;;;;;;;;27.60;26.10;101228.47;10501575;28;19930;-70
2022/04/30 12:01:23;;;;;;;;;;;;;;;26.33;27.35;101227.81;10501569;28;19920;-70
2022/04/30 12:06:28;;;;;;;;;;;;;;;26.40;25.34;101217.63;10501346;28;19920;-66
2022/04/30 12:11:41;;;;;;;;;;;;;;;28.23;26.62;101212.59;10501171;28;19920;-65
2022/04/30 12:16:45;;;;;;;;;;;;;;;28.24;25.01;101203.63;10500946;28;20015;-65
2022/04/30 12:27:19;;;;;;;;;;;;;;;27.14;26.78;101200.44;10502122;28;20011;-65
2022/04/30 12:32:22;;;;;;;;;;;;;;;26.18;27.22;101199.44;10497682;28;19921;-65
2022/04/30 12:37:31;;;;;;;;;;;;;;;25.40;27.72;101198.84;10500288;28;19925;-63
2022/04/30 12:42:37;;;;;;;;;;;;;;;25.16;29.79;101193.13;10500484;28;20317;-67
2022/04/30 12:47:41;;;;;;;;;;;;;;;24.59;29.66;101189.19;10500337;28;19926;-70
2022/04/30 12:52:45;;;;;;;;;;;;;;;24.29;30.36;101190.00;10500753;28;19921;-66
2022/04/30 12:57:49;;;;;;;;;;;;;;;24.20;29.95;101191.34;10500220;28;19920;-66
2022/04/30 13:02:52;;;;;;;;;;;;;;;23.91;28.75;101192.84;10497560;28;19920;-66
2022/04/30 13:07:57;;;;;;;;;;;;;;;23.41;28.81;101180.41;10500231;28;20334;-69
2022/04/30 13:18:21;;;;;;;;;;;;;;;23.12;30.36;101178.31;10499772;28;20007;-65
2022/04/30 13:23:25;;;;;;;;;;;;;;;23.31;29.02;101180.03;10505043;28;20037;-68
2022/04/30 13:28:29;;;;;;;;;;;;;;;23.04;31.58;101173.38;10507795;28;19930;-67
2022/04/30 13:33:32;;;;;;;;;;;;;;;23.42;32.07;101171.53;10507348;28;19920;-67
2022/04/30 13:38:37;;;;;;;;;;;;;;;23.44;28.95;101167.00;10506901;28;20268;-70
2022/04/30 13:43:40;;;;;;;;;;;;;;;22.61;29.41;101166.63;10506741;28;20342;-68
2022/04/30 13:48:44;;;;;;;;;;;;;;;22.02;29.39;101173.72;10506129;28;20371;-68
2022/04/30 13:53:48;;;;;;;;;;;;;;;21.58;31.76;101161.53;10506080;28;19924;-69
2022/04/30 13:58:51;;;;;;;5.83;1.27;;;;;;;21.66;31.28;101162.94;10505721;28;20201;-67
2022/04/30 14:03:55;;;;;;;4.20;1.57;;;;;;;21.34;32.11;101159.94;10481501;28;20286;-70
2022/04/30 14:09:04;;;;;;;4.03;1.40;;;;;;;20.84;33.53;101159.31;10463727;28;20657;-65
2022/04/30 14:19:28;;;;;;;6.80;1.80;;;;;;;20.80;35.75;101162.09;10463368;28;20236;-69
2022/04/30 14:24:32;;;;;;;4.17;1.70;;;;;;;20.77;32.92;101155.19;10463561;28;20228;-67
2022/04/30 14:29:37;;;;;;;4.30;1.70;;;;;;;20.40;32.79;101161.00;10463069;28;20246;-68
2022/04/30 14:34:41;;;;;;;6.80;1.80;;;;;;;20.00;33.84;101168.59;10462678;28;20221;-67
2022/04/30 14:39:46;;;;;;;3.93;1.50;;;;;;;19.74;33.15;101167.81;10463248;28;20212;-68
2022/04/30 14:44:49;;;;;;;7.33;1.80;;;;;;;19.61;33.17;101164.75;10462408;28;20220;-66
2022/04/30 14:49:55;;;;;;;4.13;1.33;;;;;;;19.62;33.76;101160.34;10462062;28;20217;-66
2022/04/30 14:55:00;;;;;;;6.67;1.60;;;;;;;19.69;32.78;101161.84;10462277;28;20259;-66
2022/04/30 15:00:04;;;;;;;5.13;1.47;;;;;;;19.50;33.09;101165.09;10462276;28;20251;-65
2022/04/30 15:05:09;;;;;;;4.60;1.50;;;;;;;19.42;37.52;101163.63;10461308;28;20228;-66
2022/04/30 15:10:13;;;;;;;4.50;1.67;;;;;;;19.35;35.27;101164.75;10461905;28;20236;-67
2022/04/30 15:15:17;;;;;;;4.00;1.60;;;;;;;19.29;35.33;101164.94;10461153;28;20550;-68
2022/04/30 15:20:20;;;;;;;4.43;1.53;;;;;;;19.46;34.56;101167.91;10457995;28;20229;-69
2022/04/30 15:25:25;;;;;;;4.63;1.23;;;;;;;19.65;35.16;101163.72;10457901;28;20291;-69
2022/04/30 15:30:29;;;;;;;6.43;1.50;;;;;;;19.54;35.28;101155.31;10457466;28;20189;-66
2022/04/30 15:35:33;;;;;;;4.27;1.43;;;;;;;19.39;36.78;101154.09;10457583;28;20292;-67
2022/04/30 15:40:37;;;;;;;4.27;1.43;;;;;;;19.19;35.77;101159.09;10456979;28;20204;-66
2022/04/30 15:45:41;;;;;;;6.53;1.63;;;;;;;18.86;35.79;101159.31;10160394;27;9999819;-66
2022/04/30 15:56:07;;;;;;;3.93;1.43;;;;;;;18.45;37.73;101157.09;10539810;28;20286;-65
2022/04/30 16:01:11;;;;;;;5.60;1.80;;;;;;;18.25;38.39;101153.22;10540631;28;20191;-65
2022/04/30 16:06:15;;;;;;;6.47;1.50;;;;;;;18.03;37.59;101152.09;10539359;28;20232;-66
2022/04/30 16:11:22;;;;;;;6.03;1.50;;;;;;;17.96;37.51;101154.94;10539295;28;20198;-68
2022/04/30 16:16:27;;;;;;;5.93;2.17;;;;;;;17.95;38.01;101150.59;10540056;28;20306;-67
2022/04/30 16:21:31;;;;;;;6.80;2.00;;;;;;;17.90;39.76;101158.59;10539454;28;20203;-68
2022/04/30 16:26:39;;;;;;;4.13;1.67;;;;;;;17.86;36.04;101146.44;10538957;28;20306;-67
2022/04/30 16:31:43;;;;;;;4.03;1.50;;;;;;;17.65;37.32;101147.03;10539313;28;20230;-67
2022/04/30 16:36:46;;;;;;;7.40;1.60;;;;;;;17.58;35.87;101150.72;10538968;28;20283;-67
2022/04/30 16:41:51;;;;;;;5.87;1.57;;;;;;;17.51;38.13;101149.16;10538538;28;20226;-68
2022/04/30 16:46:55;;;;;;;4.20;1.50;;;;;;;17.39;36.61;101149.44;10503585;28;20220;-65
2022/04/30 16:57:20;;;;;;;14.63;6.47;;;;;;;17.08;37.63;101154.56;10502765;28;20264;-71
2022/04/30 17:02:23;;;;;;;5.03;2.07;;;;;;;17.00;40.85;101160.88;10504639;28;20704;-64
2022/04/30 17:07:27;;;;;;;9.73;3.83;;;;;;;16.81;38.04;101160.44;10504570;28;20276;-65
2022/04/30 17:12:32;;;;;;;8.83;1.90;;;;;;;16.67;37.64;101164.28;10504697;28;20216;-68
2022/04/30 17:17:41;;;;;;;6.53;1.73;;;;;;;16.52;39.25;101162.84;10503759;28;20259;-66
2022/04/30 17:22:46;;;;;;;7.27;2.60;;;;;;;16.51;38.99;101162.91;10502605;28;20212;-65
2022/04/30 17:27:51;;;;;;;10.97;2.10;;;;;;;16.43;40.37;101157.78;10503611;28;20230;-64
2022/04/30 17:38:17;;;;;;;4.57;1.90;;;;;;;16.19;40.69;101167.00;10503631;28;20224;-69
2022/04/30 17:43:25;;;;;;;12.87;3.47;;;;;;;15.94;46.83;101175.38;10511180;28;20294;-69
2022/04/30 17:48:28;;;;;;;8.43;3.23;;;;;;;15.81;46.83;101179.97;10547614;28;20316;-68
2022/04/30 17:53:31;;;;;;;6.53;2.80;;;;;;;15.59;48.56;101186.47;10545163;28;20547;-67
2022/04/30 17:58:36;;;;;;;7.93;3.40;;;;;;;15.50;47.16;101184.00;10544983;28;20302;-67
2022/04/30 18:03:39;;;;;;;5.63;2.73;;;;;;;15.46;46.84;101184.94;10544621;28;20313;-66
2022/04/30 18:08:43;;;;;;;6.47;3.17;;;;;;;15.22;50.45;101194.94;10512419;28;20350;-65
2022/04/30 18:13:47;;;;;;;9.13;3.33;;;;;;;15.12;51.98;101194.19;10501742;28;20227;-65
2022/04/30 18:18:51;;;;;;;21.70;9.97;;;;;;;15.01;53.67;101190.91;10504643;28;20288;-68
2022/04/30 18:23:54;;;;;;;14.87;5.13;;;;;;;14.91;52.10;101205.84;10504618;28;20683;-67
2022/04/30 18:29:00;;;;;;;11.43;3.50;;;;;;;14.84;52.64;101206.81;10503707;28;20224;-65
2022/04/30 18:34:03;;;;;;;8.70;3.63;;;;;;;14.79;53.04;101203.38;10504596;28;20553;-68
2022/04/30 18:39:07;;;;;;;13.03;3.43;;;;;;;14.71;54.50;101212.22;10504040;28;20230;-67
2022/04/30 18:44:13;;;;;;;8.17;3.20;;;;;;;14.56;56.17;101209.81;10504252;28;20245;-67
2022/04/30 18:49:20;;;;;;;13.43;4.40;;;;;;;14.47;56.23;101218.63;10504519;28;20223;-68
2022/04/30 19:05:07;;;;;;;9.10;3.90;;;;;;;14.25;58.20;101216.25;10503211;28;20307;-71
2022/04/30 19:10:11;;;;;;;8.70;4.17;;;;;;;14.22;57.42;101219.75;10500035;28;20224;-67
2022/04/30 19:15:15;;;;;;;9.23;3.87;;;;;;;14.08;61.08;101218.19;10499683;28;20319;-70
2022/04/30 19:20:21;;;;;;;9.80;4.90;;;;;;;13.99;60.52;101226.97;10500437;28;20228;-70
2022/04/30 19:25:24;;;;;;;10.80;4.83;;;;;;;13.87;61.60;101230.53;10499541;28;20273;-66
2022/04/30 19:30:29;;;;;;;11.57;5.37;;;;;;;13.84;63.22;101224.50;10498726;28;20220;-66
2022/04/30 19:35:32;;;;;;;10.03;4.77;;;;;;;13.75;63.30;101229.81;10166135;27;9999808;-66
2022/04/30 19:40:36;;;;;;;9.53;4.70;;;;;;;13.65;62.89;101218.59;10540255;28;20245;-65
2022/04/30 19:45:41;;;;;;;11.07;5.27;;;;;;;13.52;62.87;101224.81;10540530;28;20219;-67
2022/04/30 19:50:45;;;;;;;12.27;5.77;;;;;;;13.40;63.46;101222.28;10542714;28;20219;-63
2022/04/30 19:55:48;;;;;;;12.80;5.60;;;;;;;13.27;62.72;101214.56;10542119;28;20544;-66
2022/04/30 20:00:53;;;;;;;13.73;5.80;;;;;;;13.24;63.77;101219.78;10543539;28;20221;-66
2022/04/30 20:05:56;;;;;;;15.90;6.67;;;;;;;13.20;63.78;101218.94;10542907;28;20294;-67
2022/04/30 20:21:43;;;;;;;16.30;6.83;;;;;;;12.98;65.43;101213.88;10543498;28;20219;-65
2022/04/30 20:26:47;;;;;;;12.73;5.97;;;;;;;12.92;68.00;101219.97;10540699;28;20222;-65
2022/04/30 20:37:13;;;;;;;12.27;6.67;;;;;;;12.86;70.81;101216.56;10541734;28;20231;-66
2022/04/30 20:42:17;;;;;;;14.20;6.83;;;;;;;12.74;70.05;101218.34;10542129;28;20237;-65
2022/04/30 20:47:22;;;;;;;14.43;7.07;;;;;;;12.64;72.11;101216.66;10541946;28;20223;-68
2022/04/30 20:52:29;;;;;;;14.93;6.90;;;;;;;12.52;73.46;101210.63;10542307;28;20242;-66
2022/04/30 20:57:33;;;;;;;16.77;8.43;;;;;;;12.50;73.08;101214.97;10544827;28;20227;-64
2022/04/30 21:02:38;;;;;;;16.17;8.33;;;;;;;12.45;72.21;101220.22;10542320;28;20311;-66
2022/04/30 21:07:41;;;;;;;18.73;8.93;;;;;;;12.39;72.32;101224.59;10541632;28;20305;-66
2022/04/30 21:12:45;;;;;;;16.97;8.50;;;;;;;12.33;72.92;101214.19;10541547;28;20211;-66
2022/04/30 21:17:50;;;;;;;16.73;8.03;;;;;;;12.19;73.72;101215.97;10541476;28;20568;-67
2022/04/30 21:22:53;;;;;;;14.23;7.30;;;;;;;12.20;72.97;101213.34;10541841;28;20660;-64
2022/04/30 21:27:58;;;;;;;18.67;10.20;;;;;;;12.13;72.42;101213.38;10542695;28;20219;-66
2022/04/30 21:33:03;;;;;;;18.97;8.53;;;;;;;12.10;74.05;101205.56;10507573;28;20270;-64
2022/04/30 21:38:06;;;;;;;18.33;7.80;;;;;;;12.07;73.69;101210.78;10495457;28;20234;-66
2022/04/30 21:43:10;;;;;;;13.57;8.07;;;;;;;12.00;75.27;101211.66;10498690;28;20227;-66
2022/04/30 21:48:15;;;;;;;16.00;8.93;;;;;;;11.86;75.51;101214.31;10502858;28;20238;-69
2022/04/30 21:53:18;;;;;;;14.70;9.23;;;;;;;11.80;76.29;101213.44;10504654;28;20208;-67
2022/04/30 22:03:51;;;;;;;14.33;8.90;;;;;;;11.64;75.81;101207.41;10504857;28;20261;-67
2022/04/30 22:08:57;;;;;;;22.30;10.20;;;;;;;11.63;76.28;101213.44;10503704;28;20234;-72
2022/04/30 22:14:00;;;;;;;17.27;9.80;;;;;;;11.54;75.42;101214.28;10502144;28;20224;-69
2022/04/30 22:19:09;;;;;;;24.03;9.53;;;;;;;11.51;74.76;101203.91;10502742;28;20342;-68
2022/04/30 22:24:12;;;;;;;15.30;8.43;;;;;;;11.46;75.41;101215.16;10502583;28;20238;-66
2022/04/30 22:29:16;;;;;;;18.50;9.20;;;;;;;11.42;76.92;101211.69;10501711;28;20231;-67
2022/04/30 22:34:20;;;;;;;18.57;9.47;;;;;;;11.39;76.90;101206.50;10501351;28;20669;-70
2022/04/30 22:42:46;;;;;;;24.60;10.60;;;;;;;11.33;75.39;101206.50;10501307;28;20580;-67
2022/04/30 22:44:47;;;;;;;21.27;10.73;;;;;;;11.29;73.43;101209.09;10111173;28;10000734;-69
2022/04/30 22:49:52;;;;;;;20.30;11.10;;;;;;;11.22;74.93;101203.03;10462257;28;20224;-66
2022/04/30 22:54:55;;;;;;;23.10;10.10;;;;;;;11.17;76.50;101202.16;10460602;28;20311;-68
2022/04/30 22:59:59;;;;;;;22.93;12.07;;;;;;;11.05;76.63;101196.94;10462042;28;20238;-69
2022/04/30 23:05:06;;;;;;;20.63;11.10;;;;;;;10.92;78.29;101196.94;10462550;28;20315;-65
2022/04/30 23:10:15;;;;;;;25.17;12.10;;;;;;;10.85;79.75;101197.78;10462141;28;20235;-68
2022/04/30 23:15:18;;;;;;;23.23;13.60;;;;;;;10.81;79.89;101196.03;10461438;28;20227;-66
2022/04/30 23:20:23;;;;;;;25.20;13.23;;;;;;;10.81;78.83;101196.91;10458988;28;20232;-69
2022/04/30 23:25:27;;;;;;;24.17;13.77;;;;;;;10.84;79.12;101190.84;10565649;22;20241;-70
2022/04/30 23:30:30;;;;;;;26.90;13.80;;;;;;;10.78;78.80;101194.31;10416766;28;20221;-68
2022/04/30 23:35:35;;;;;;;25.80;16.07;;;;;;;10.70;77.97;101196.00;10418608;28;20705;-66
2022/04/30 23:40:38;;;;;;;29.80;16.53;;;;;;;10.68;78.20;101192.56;10419553;28;20781;-66
2022/04/30 23:45:42;;;;;;;29.33;17.03;;;;;;;10.62;78.61;101184.75;10068135;28;9999727;-64
2022/04/30 23:50:47;;;;;;;28.63;16.30;;;;;;;10.55;78.66;101193.38;10415155;28;20217;-67
2022/04/30 23:55:50;;;;;;;29.67;16.07;;;;;;;10.46;80.13;101189.00;10415371;28;20204;-68
